Terminal Aerodrome Forecast
Issued by NWS

Home | Current Version | Previous Version | Text Only | Print | Product List | Glossary On
Versions: 1 2 3 4 5 6 7 8 9 10 11 12 13 14 15
000
FTUS43 KIND 301700
TAFHUF
TAF
KHUF 301721Z 3018/3118 19005KT P6SM BKN080
     FM302200 VRB04KT P6SM VCSH OVC060
     FM311300 33013G20KT P6SM VCSH SCT015 BKN025=

USA.gov is the U.S. government's official web portal to all federal, state and local government web resources and services.